sensor_id;sensor_type;location;lat;lon;timestamp;temperature;humidity
37528;DHT22;23372;52.050;4.810;2023-07-13T00:00:24;18.20;99.90
37528;DHT22;23372;52.050;4.810;2023-07-13T00:02:50;18.10;99.90
37528;DHT22;23372;52.050;4.810;2023-07-13T00:05:20;18.00;99.90
37528;DHT22;23372;52.050;4.810;2023-07-13T00:07:46;18.00;99.90
37528;DHT22;23372;52.050;4.810;2023-07-13T00:10:12;18.00;99.90
37528;DHT22;23372;52.050;4.810;2023-07-13T00:12:38;18.00;99.90
37528;DHT22;23372;52.050;4.810;2023-07-13T00:15:07;17.90;99.90
37528;DHT22;23372;52.050;4.810;2023-07-13T00:17:35;17.80;99.90
37528;DHT22;23372;52.050;4.810;2023-07-13T00:20:02;17.80;99.90
37528;DHT22;23372;52.050;4.810;2023-07-13T00:22:29;17.70;99.90
37528;DHT22;23372;52.050;4.810;2023-07-13T00:24:55;17.70;99.90
37528;DHT22;23372;52.050;4.810;2023-07-13T00:27:24;17.60;99.90
37528;DHT22;23372;52.050;4.810;2023-07-13T00:29:51;17.60;99.90
37528;DHT22;23372;52.050;4.810;2023-07-13T00:32:18;17.60;99.90
37528;DHT22;23372;52.050;4.810;2023-07-13T00:34:43;17.60;99.90
37528;DHT22;23372;52.050;4.810;2023-07-13T00:37:09;17.60;99.90
37528;DHT22;23372;52.050;4.810;2023-07-13T00:39:35;17.60;99.90
37528;DHT22;23372;52.050;4.810;2023-07-13T00:42:02;17.60;99.90
37528;DHT22;23372;52.050;4.810;2023-07-13T00:44:28;17.70;99.90
37528;DHT22;23372;52.050;4.810;2023-07-13T00:46:54;17.60;99.90
37528;DHT22;23372;52.050;4.810;2023-07-13T00:49:23;17.70;99.90
37528;DHT22;23372;52.050;4.810;2023-07-13T00:51:52;17.60;99.90
37528;DHT22;23372;52.050;4.810;2023-07-13T00:54:28;17.70;99.90
37528;DHT22;23372;52.050;4.810;2023-07-13T00:56:59;17.70;99.90
37528;DHT22;23372;52.050;4.810;2023-07-13T00:59:26;17.80;99.90
37528;DHT22;23372;52.050;4.810;2023-07-13T01:01:52;17.70;99.90
37528;DHT22;23372;52.050;4.810;2023-07-13T01:04:18;17.70;99.90
37528;DHT22;23372;52.050;4.810;2023-07-13T01:06:45;17.60;99.90
37528;DHT22;23372;52.050;4.810;2023-07-13T01:09:13;17.70;99.90
37528;DHT22;23372;52.050;4.810;2023-07-13T01:11:39;17.70;99.90
37528;DHT22;23372;52.050;4.810;2023-07-13T01:14:06;17.60;99.90
37528;DHT22;23372;52.050;4.810;2023-07-13T01:16:34;17.60;99.90
37528;DHT22;23372;52.050;4.810;2023-07-13T01:19:01;17.50;99.90
37528;DHT22;23372;52.050;4.810;2023-07-13T01:21:29;17.50;99.90
37528;DHT22;23372;52.050;4.810;2023-07-13T01:23:55;17.50;99.90
37528;DHT22;23372;52.050;4.810;2023-07-13T01:26:21;17.50;99.90
37528;DHT22;23372;52.050;4.810;2023-07-13T01:28:47;17.50;99.90
37528;DHT22;23372;52.050;4.810;2023-07-13T01:31:13;17.50;99.90
37528;DHT22;23372;52.050;4.810;2023-07-13T01:33:39;17.30;99.90
37528;DHT22;23372;52.050;4.810;2023-07-13T01:36:10;17.30;99.90
37528;DHT22;23372;52.050;4.810;2023-07-13T01:38:36;17.20;99.90
37528;DHT22;23372;52.050;4.810;2023-07-13T01:41:02;17.30;99.90
37528;DHT22;23372;52.050;4.810;2023-07-13T01:43:28;17.20;99.90
37528;DHT22;23372;52.050;4.810;2023-07-13T01:45:54;17.20;99.90
37528;DHT22;23372;52.050;4.810;2023-07-13T01:48:20;16.90;99.90
37528;DHT22;23372;52.050;4.810;2023-07-13T01:50:47;16.90;99.90
37528;DHT22;23372;52.050;4.810;2023-07-13T01:53:12;17.00;99.90
37528;DHT22;23372;52.050;4.810;2023-07-13T01:55:38;17.00;99.90
37528;DHT22;23372;52.050;4.810;2023-07-13T01:58:04;16.90;99.90
37528;DHT22;23372;52.050;4.810;2023-07-13T02:00:30;16.90;99.90
37528;DHT22;23372;52.050;4.810;2023-07-13T02:02:56;16.90;99.90
37528;DHT22;23372;52.050;4.810;2023-07-13T02:05:22;16.80;99.90
37528;DHT22;23372;52.050;4.810;2023-07-13T02:07:48;16.70;99.90
37528;DHT22;23372;52.050;4.810;2023-07-13T02:10:14;16.60;99.90
37528;DHT22;23372;52.050;4.810;2023-07-13T02:12:41;16.80;99.90
37528;DHT22;23372;52.050;4.810;2023-07-13T02:15:07;16.80;99.90
37528;DHT22;23372;52.050;4.810;2023-07-13T02:17:34;16.80;99.90
37528;DHT22;23372;52.050;4.810;2023-07-13T02:20:01;16.90;99.90
37528;DHT22;23372;52.050;4.810;2023-07-13T02:22:27;16.80;99.90
37528;DHT22;23372;52.050;4.810;2023-07-13T02:24:52;16.90;99.90
37528;DHT22;23372;52.050;4.810;2023-07-13T02:27:18;16.90;99.90
37528;DHT22;23372;52.050;4.810;2023-07-13T02:29:44;16.80;99.90
37528;DHT22;23372;52.050;4.810;2023-07-13T02:32:10;16.90;99.90
37528;DHT22;23372;52.050;4.810;2023-07-13T02:34:36;16.70;99.90
37528;DHT22;23372;52.050;4.810;2023-07-13T02:37:02;16.80;99.90
37528;DHT22;23372;52.050;4.810;2023-07-13T02:39:27;16.80;99.90
37528;DHT22;23372;52.050;4.810;2023-07-13T02:41:53;16.70;99.90
37528;DHT22;23372;52.050;4.810;2023-07-13T02:44:18;16.80;99.90
37528;DHT22;23372;52.050;4.810;2023-07-13T02:46:44;16.80;99.90
37528;DHT22;23372;52.050;4.810;2023-07-13T02:49:10;16.70;99.90
37528;DHT22;23372;52.050;4.810;2023-07-13T02:51:36;16.80;99.90
37528;DHT22;23372;52.050;4.810;2023-07-13T02:54:03;16.80;99.90
37528;DHT22;23372;52.050;4.810;2023-07-13T02:56:29;16.70;99.90
37528;DHT22;23372;52.050;4.810;2023-07-13T02:58:56;16.70;99.90
37528;DHT22;23372;52.050;4.810;2023-07-13T03:01:22;16.60;99.90
37528;DHT22;23372;52.050;4.810;2023-07-13T03:03:49;16.40;99.90
37528;DHT22;23372;52.050;4.810;2023-07-13T03:06:16;16.40;99.90
37528;DHT22;23372;52.050;4.810;2023-07-13T03:08:43;16.30;99.90
37528;DHT22;23372;52.050;4.810;2023-07-13T03:11:12;16.40;99.90
37528;DHT22;23372;52.050;4.810;2023-07-13T03:13:39;16.30;99.90
37528;DHT22;23372;52.050;4.810;2023-07-13T03:16:06;16.30;99.90
37528;DHT22;23372;52.050;4.810;2023-07-13T03:18:32;16.30;99.90
37528;DHT22;23372;52.050;4.810;2023-07-13T03:20:58;16.20;99.90
37528;DHT22;23372;52.050;4.810;2023-07-13T03:23:24;16.10;99.90
37528;DHT22;23372;52.050;4.810;2023-07-13T03:26:00;16.10;99.90
37528;DHT22;23372;52.050;4.810;2023-07-13T03:28:26;16.00;99.90
37528;DHT22;23372;52.050;4.810;2023-07-13T03:31:03;16.00;99.90
37528;DHT22;23372;52.050;4.810;2023-07-13T03:33:30;15.90;99.90
37528;DHT22;23372;52.050;4.810;2023-07-13T03:35:56;15.90;99.90
37528;DHT22;23372;52.050;4.810;2023-07-13T03:38:21;15.90;99.90
37528;DHT22;23372;52.050;4.810;2023-07-13T03:40:47;15.80;99.90
37528;DHT22;23372;52.050;4.810;2023-07-13T03:43:13;16.00;99.90
37528;DHT22;23372;52.050;4.810;2023-07-13T03:45:39;15.90;99.90
37528;DHT22;23372;52.050;4.810;2023-07-13T03:48:04;15.90;99.90
37528;DHT22;23372;52.050;4.810;2023-07-13T03:50:31;15.80;99.90
37528;DHT22;23372;52.050;4.810;2023-07-13T03:53:00;15.80;99.90
37528;DHT22;23372;52.050;4.810;2023-07-13T03:55:26;15.90;99.90
37528;DHT22;23372;52.050;4.810;2023-07-13T03:57:58;15.80;99.90
37528;DHT22;23372;52.050;4.810;2023-07-13T04:00:24;15.90;99.90
37528;DHT22;23372;52.050;4.810;2023-07-13T04:02:50;15.90;99.90
37528;DHT22;23372;52.050;4.810;2023-07-13T04:05:16;15.80;99.90
37528;DHT22;23372;52.050;4.810;2023-07-13T04:07:42;15.90;99.90
37528;DHT22;23372;52.050;4.810;2023-07-13T04:10:08;16.00;99.90
37528;DHT22;23372;52.050;4.810;2023-07-13T04:12:34;16.00;99.90
37528;DHT22;23372;52.050;4.810;2023-07-13T04:14:59;16.00;99.90
37528;DHT22;23372;52.050;4.810;2023-07-13T04:17:25;16.00;99.90
37528;DHT22;23372;52.050;4.810;2023-07-13T04:19:51;16.10;99.90
37528;DHT22;23372;52.050;4.810;2023-07-13T04:22:17;16.10;99.90
37528;DHT22;23372;52.050;4.810;2023-07-13T04:24:43;16.20;99.90
37528;DHT22;23372;52.050;4.810;2023-07-13T04:27:09;16.10;99.90
37528;DHT22;23372;52.050;4.810;2023-07-13T04:29:35;16.20;99.90
37528;DHT22;23372;52.050;4.810;2023-07-13T04:32:00;16.20;99.90
37528;DHT22;23372;52.050;4.810;2023-07-13T04:34:26;16.20;99.90
37528;DHT22;23372;52.050;4.810;2023-07-13T04:36:52;16.20;99.90
37528;DHT22;23372;52.050;4.810;2023-07-13T04:39:18;16.40;99.90
37528;DHT22;23372;52.050;4.810;2023-07-13T04:41:43;16.40;99.90
37528;DHT22;23372;52.050;4.810;2023-07-13T04:44:09;16.50;99.90
37528;DHT22;23372;52.050;4.810;2023-07-13T04:46:35;16.50;99.90
37528;DHT22;23372;52.050;4.810;2023-07-13T04:49:00;16.50;99.90
37528;DHT22;23372;52.050;4.810;2023-07-13T04:51:26;16.60;99.90
37528;DHT22;23372;52.050;4.810;2023-07-13T04:53:52;16.50;99.90
37528;DHT22;23372;52.050;4.810;2023-07-13T04:56:18;16.60;99.90
37528;DHT22;23372;52.050;4.810;2023-07-13T04:58:45;16.80;99.90
37528;DHT22;23372;52.050;4.810;2023-07-13T05:01:11;16.80;99.90
37528;DHT22;23372;52.050;4.810;2023-07-13T05:03:37;16.80;99.90
37528;DHT22;23372;52.050;4.810;2023-07-13T05:06:05;16.90;99.90
37528;DHT22;23372;52.050;4.810;2023-07-13T05:08:32;16.90;99.90
37528;DHT22;23372;52.050;4.810;2023-07-13T05:11:00;17.10;99.90
37528;DHT22;23372;52.050;4.810;2023-07-13T05:13:26;17.20;99.90
37528;DHT22;23372;52.050;4.810;2023-07-13T05:16:03;17.20;99.90
37528;DHT22;23372;52.050;4.810;2023-07-13T05:18:30;17.20;99.90
37528;DHT22;23372;52.050;4.810;2023-07-13T05:20:58;17.20;99.90
37528;DHT22;23372;52.050;4.810;2023-07-13T05:23:24;17.30;99.90
37528;DHT22;23372;52.050;4.810;2023-07-13T05:25:51;17.40;99.90
37528;DHT22;23372;52.050;4.810;2023-07-13T05:28:16;17.40;99.90
37528;DHT22;23372;52.050;4.810;2023-07-13T05:30:47;17.40;99.90
37528;DHT22;23372;52.050;4.810;2023-07-13T05:33:13;17.60;99.90
37528;DHT22;23372;52.050;4.810;2023-07-13T05:35:39;17.60;99.90
37528;DHT22;23372;52.050;4.810;2023-07-13T05:38:05;17.70;99.90
37528;DHT22;23372;52.050;4.810;2023-07-13T05:40:31;18.00;99.90
37528;DHT22;23372;52.050;4.810;2023-07-13T05:42:56;18.00;99.90
37528;DHT22;23372;52.050;4.810;2023-07-13T05:45:22;18.10;99.90
37528;DHT22;23372;52.050;4.810;2023-07-13T05:47:48;18.20;99.90
37528;DHT22;23372;52.050;4.810;2023-07-13T05:50:14;18.20;99.90
37528;DHT22;23372;52.050;4.810;2023-07-13T05:52:40;18.30;99.90
37528;DHT22;23372;52.050;4.810;2023-07-13T05:55:06;18.30;99.90
37528;DHT22;23372;52.050;4.810;2023-07-13T05:57:32;18.60;99.90
37528;DHT22;23372;52.050;4.810;2023-07-13T05:59:58;18.50;99.90
37528;DHT22;23372;52.050;4.810;2023-07-13T06:02:24;18.70;99.90
37528;DHT22;23372;52.050;4.810;2023-07-13T06:04:51;18.90;99.90
37528;DHT22;23372;52.050;4.810;2023-07-13T06:07:18;18.90;99.90
37528;DHT22;23372;52.050;4.810;2023-07-13T06:09:44;18.90;99.90
37528;DHT22;23372;52.050;4.810;2023-07-13T06:12:10;19.20;99.90
37528;DHT22;23372;52.050;4.810;2023-07-13T06:14:35;19.50;99.90
37528;DHT22;23372;52.050;4.810;2023-07-13T06:17:01;19.40;99.90
37528;DHT22;23372;52.050;4.810;2023-07-13T06:19:27;19.20;99.90
37528;DHT22;23372;52.050;4.810;2023-07-13T06:21:52;18.90;99.90
37528;DHT22;23372;52.050;4.810;2023-07-13T06:24:18;19.00;99.90
37528;DHT22;23372;52.050;4.810;2023-07-13T06:26:44;18.80;99.90
37528;DHT22;23372;52.050;4.810;2023-07-13T06:29:09;18.80;99.90
37528;DHT22;23372;52.050;4.810;2023-07-13T06:31:35;18.50;99.90
37528;DHT22;23372;52.050;4.810;2023-07-13T06:34:01;18.30;99.90
37528;DHT22;23372;52.050;4.810;2023-07-13T06:36:26;18.20;99.90
37528;DHT22;23372;52.050;4.810;2023-07-13T06:38:52;17.70;99.90
37528;DHT22;23372;52.050;4.810;2023-07-13T06:41:18;17.60;99.90
37528;DHT22;23372;52.050;4.810;2023-07-13T06:43:44;17.30;99.90
37528;DHT22;23372;52.050;4.810;2023-07-13T06:46:10;17.20;99.90
37528;DHT22;23372;52.050;4.810;2023-07-13T06:48:35;17.00;99.90
37528;DHT22;23372;52.050;4.810;2023-07-13T06:51:02;16.90;99.90
37528;DHT22;23372;52.050;4.810;2023-07-13T06:53:29;16.80;99.90
37528;DHT22;23372;52.050;4.810;2023-07-13T06:55:55;16.90;99.90
37528;DHT22;23372;52.050;4.810;2023-07-13T06:58:22;17.00;99.90
37528;DHT22;23372;52.050;4.810;2023-07-13T07:00:51;17.10;99.90
37528;DHT22;23372;52.050;4.810;2023-07-13T07:03:17;17.20;99.90
37528;DHT22;23372;52.050;4.810;2023-07-13T07:05:43;17.50;99.90
37528;DHT22;23372;52.050;4.810;2023-07-13T07:08:09;17.70;99.90
37528;DHT22;23372;52.050;4.810;2023-07-13T07:10:35;18.20;99.90
37528;DHT22;23372;52.050;4.810;2023-07-13T07:13:02;18.50;99.90
37528;DHT22;23372;52.050;4.810;2023-07-13T07:15:29;18.40;99.90
37528;DHT22;23372;52.050;4.810;2023-07-13T07:17:55;18.70;99.90
37528;DHT22;23372;52.050;4.810;2023-07-13T07:20:21;20.10;99.90
37528;DHT22;23372;52.050;4.810;2023-07-13T07:22:47;20.30;99.90
37528;DHT22;23372;52.050;4.810;2023-07-13T07:25:13;20.10;99.90
37528;DHT22;23372;52.050;4.810;2023-07-13T07:27:38;21.10;99.90
37528;DHT22;23372;52.050;4.810;2023-07-13T07:30:05;23.60;99.90
37528;DHT22;23372;52.050;4.810;2023-07-13T07:32:31;26.10;99.90
37528;DHT22;23372;52.050;4.810;2023-07-13T07:34:58;26.30;99.90
37528;DHT22;23372;52.050;4.810;2023-07-13T07:37:24;26.60;99.90
37528;DHT22;23372;52.050;4.810;2023-07-13T07:39:49;28.00;99.90
37528;DHT22;23372;52.050;4.810;2023-07-13T07:42:15;26.90;99.90
37528;DHT22;23372;52.050;4.810;2023-07-13T07:44:41;26.40;99.90
37528;DHT22;23372;52.050;4.810;2023-07-13T07:47:07;24.10;99.90
37528;DHT22;23372;52.050;4.810;2023-07-13T07:49:34;23.30;99.90
37528;DHT22;23372;52.050;4.810;2023-07-13T07:52:00;22.10;99.90
37528;DHT22;23372;52.050;4.810;2023-07-13T07:54:25;21.50;99.90
37528;DHT22;23372;52.050;4.810;2023-07-13T07:56:51;20.50;99.90
37528;DHT22;23372;52.050;4.810;2023-07-13T07:59:17;20.20;99.90
37528;DHT22;23372;52.050;4.810;2023-07-13T08:01:42;20.00;99.90
37528;DHT22;23372;52.050;4.810;2023-07-13T08:04:08;19.50;99.90
37528;DHT22;23372;52.050;4.810;2023-07-13T08:06:35;18.80;99.90
37528;DHT22;23372;52.050;4.810;2023-07-13T08:09:00;18.50;99.90
37528;DHT22;23372;52.050;4.810;2023-07-13T08:11:27;18.50;99.90
37528;DHT22;23372;52.050;4.810;2023-07-13T08:13:53;19.00;99.90
37528;DHT22;23372;52.050;4.810;2023-07-13T08:16:19;21.20;99.90
37528;DHT22;23372;52.050;4.810;2023-07-13T08:18:45;23.00;99.90
37528;DHT22;23372;52.050;4.810;2023-07-13T08:21:10;25.10;99.90
37528;DHT22;23372;52.050;4.810;2023-07-13T08:23:36;25.60;99.90
37528;DHT22;23372;52.050;4.810;2023-07-13T08:26:02;24.50;99.90
37528;DHT22;23372;52.050;4.810;2023-07-13T08:28:29;22.90;99.90
37528;DHT22;23372;52.050;4.810;2023-07-13T08:31:03;21.80;99.90
37528;DHT22;23372;52.050;4.810;2023-07-13T08:33:29;21.60;99.90
37528;DHT22;23372;52.050;4.810;2023-07-13T08:35:54;22.00;99.90
37528;DHT22;23372;52.050;4.810;2023-07-13T08:38:20;21.90;99.90
37528;DHT22;23372;52.050;4.810;2023-07-13T08:40:52;21.80;99.90
37528;DHT22;23372;52.050;4.810;2023-07-13T08:43:23;21.50;99.90
37528;DHT22;23372;52.050;4.810;2023-07-13T08:45:54;21.40;99.90
37528;DHT22;23372;52.050;4.810;2023-07-13T08:48:28;21.70;99.90
37528;DHT22;23372;52.050;4.810;2023-07-13T08:53:46;22.30;99.90
37528;DHT22;23372;52.050;4.810;2023-07-13T08:56:18;22.00;99.90
37528;DHT22;23372;52.050;4.810;2023-07-13T08:58:48;21.70;99.90
37528;DHT22;23372;52.050;4.810;2023-07-13T09:01:47;21.30;99.90
37528;DHT22;23372;52.050;4.810;2023-07-13T09:04:14;20.60;99.90
37528;DHT22;23372;52.050;4.810;2023-07-13T09:09:48;19.40;99.90
37528;DHT22;23372;52.050;4.810;2023-07-13T09:14:59;18.60;99.90
37528;DHT22;23372;52.050;4.810;2023-07-13T09:17:36;18.50;99.90
37528;DHT22;23372;52.050;4.810;2023-07-13T09:20:34;18.50;99.90
37528;DHT22;23372;52.050;4.810;2023-07-13T09:23:03;18.40;99.90
37528;DHT22;23372;52.050;4.810;2023-07-13T09:25:33;18.50;99.90
37528;DHT22;23372;52.050;4.810;2023-07-13T09:28:05;18.50;99.90
37528;DHT22;23372;52.050;4.810;2023-07-13T09:31:01;18.70;99.90
37528;DHT22;23372;52.050;4.810;2023-07-13T09:33:28;19.40;99.90
37528;DHT22;23372;52.050;4.810;2023-07-13T09:35:56;19.90;99.90
37528;DHT22;23372;52.050;4.810;2023-07-13T09:38:29;20.40;99.90
37528;DHT22;23372;52.050;4.810;2023-07-13T09:43:24;21.10;99.90
37528;DHT22;23372;52.050;4.810;2023-07-13T09:45:50;20.90;99.90
37528;DHT22;23372;52.050;4.810;2023-07-13T09:48:17;20.80;99.90
37528;DHT22;23372;52.050;4.810;2023-07-13T09:50:44;20.70;99.90
37528;DHT22;23372;52.050;4.810;2023-07-13T09:53:19;20.40;99.90
37528;DHT22;23372;52.050;4.810;2023-07-13T09:55:48;20.20;99.90
37528;DHT22;23372;52.050;4.810;2023-07-13T09:58:20;20.30;99.90
37528;DHT22;23372;52.050;4.810;2023-07-13T10:01:06;20.80;99.90
37528;DHT22;23372;52.050;4.810;2023-07-13T10:03:34;20.60;99.90
37528;DHT22;23372;52.050;4.810;2023-07-13T10:06:20;20.20;99.90
37528;DHT22;23372;52.050;4.810;2023-07-13T10:08:48;20.40;99.90
37528;DHT22;23372;52.050;4.810;2023-07-13T10:11:37;20.30;99.90
37528;DHT22;23372;52.050;4.810;2023-07-13T10:14:20;20.60;99.90
37528;DHT22;23372;52.050;4.810;2023-07-13T10:16:53;21.00;99.90
37528;DHT22;23372;52.050;4.810;2023-07-13T10:19:27;21.00;99.90
37528;DHT22;23372;52.050;4.810;2023-07-13T10:22:01;21.00;99.90
37528;DHT22;23372;52.050;4.810;2023-07-13T10:24:37;21.30;99.90
37528;DHT22;23372;52.050;4.810;2023-07-13T10:27:33;21.60;99.90
37528;DHT22;23372;52.050;4.810;2023-07-13T10:30:10;22.10;99.90
37528;DHT22;23372;52.050;4.810;2023-07-13T10:32:37;22.60;99.90
37528;DHT22;23372;52.050;4.810;2023-07-13T10:35:03;22.40;99.90
37528;DHT22;23372;52.050;4.810;2023-07-13T10:37:44;22.10;99.90
37528;DHT22;23372;52.050;4.810;2023-07-13T10:40:16;21.70;99.90
37528;DHT22;23372;52.050;4.810;2023-07-13T10:42:46;21.70;99.90
37528;DHT22;23372;52.050;4.810;2023-07-13T10:45:15;22.00;99.90
37528;DHT22;23372;52.050;4.810;2023-07-13T10:47:42;22.20;99.90
37528;DHT22;23372;52.050;4.810;2023-07-13T10:50:17;22.00;99.90
37528;DHT22;23372;52.050;4.810;2023-07-13T10:52:47;21.60;99.90
37528;DHT22;23372;52.050;4.810;2023-07-13T10:58:03;20.80;99.90
37528;DHT22;23372;52.050;4.810;2023-07-13T11:00:46;20.60;99.90
37528;DHT22;23372;52.050;4.810;2023-07-13T11:03:15;20.30;99.90
37528;DHT22;23372;52.050;4.810;2023-07-13T11:05:42;20.20;99.90
37528;DHT22;23372;52.050;4.810;2023-07-13T11:08:36;20.10;99.90
37528;DHT22;23372;52.050;4.810;2023-07-13T11:11:03;20.10;99.90
37528;DHT22;23372;52.050;4.810;2023-07-13T11:18:48;21.90;99.90
37528;DHT22;23372;52.050;4.810;2023-07-13T11:21:17;22.00;99.90
37528;DHT22;23372;52.050;4.810;2023-07-13T11:23:44;22.10;99.90
37528;DHT22;23372;52.050;4.810;2023-07-13T11:31:59;22.90;99.90
37528;DHT22;23372;52.050;4.810;2023-07-13T11:34:35;22.90;99.90
37528;DHT22;23372;52.050;4.810;2023-07-13T11:37:02;22.50;99.90
37528;DHT22;23372;52.050;4.810;2023-07-13T11:39:36;22.70;99.90
37528;DHT22;23372;52.050;4.810;2023-07-13T11:42:06;22.90;99.90
37528;DHT22;23372;52.050;4.810;2023-07-13T11:44:34;23.10;99.90
37528;DHT22;23372;52.050;4.810;2023-07-13T11:47:09;23.40;99.90
37528;DHT22;23372;52.050;4.810;2023-07-13T11:49:43;23.50;99.90
37528;DHT22;23372;52.050;4.810;2023-07-13T11:52:15;23.50;99.90
37528;DHT22;23372;52.050;4.810;2023-07-13T11:54:47;23.70;99.90
37528;DHT22;23372;52.050;4.810;2023-07-13T11:57:32;23.80;99.90
37528;DHT22;23372;52.050;4.810;2023-07-13T12:00:04;23.80;99.90
37528;DHT22;23372;52.050;4.810;2023-07-13T12:02:33;23.70;99.90
37528;DHT22;23372;52.050;4.810;2023-07-13T12:05:02;23.60;99.90
37528;DHT22;23372;52.050;4.810;2023-07-13T12:07:31;23.80;99.90
37528;DHT22;23372;52.050;4.810;2023-07-13T12:15:34;23.90;99.90
37528;DHT22;23372;52.050;4.810;2023-07-13T12:18:02;24.10;99.90
37528;DHT22;23372;52.050;4.810;2023-07-13T12:20:35;24.10;99.90
37528;DHT22;23372;52.050;4.810;2023-07-13T12:23:05;24.20;99.90
37528;DHT22;23372;52.050;4.810;2023-07-13T12:25:33;24.50;99.90
37528;DHT22;23372;52.050;4.810;2023-07-13T12:27:59;24.40;99.90
37528;DHT22;23372;52.050;4.810;2023-07-13T12:30:27;24.40;99.90
37528;DHT22;23372;52.050;4.810;2023-07-13T12:33:16;24.50;99.90
37528;DHT22;23372;52.050;4.810;2023-07-13T12:35:49;24.30;99.90
37528;DHT22;23372;52.050;4.810;2023-07-13T12:38:16;24.40;99.90
37528;DHT22;23372;52.050;4.810;2023-07-13T12:40:42;24.40;99.90
37528;DHT22;23372;52.050;4.810;2023-07-13T12:43:13;24.40;99.90
37528;DHT22;23372;52.050;4.810;2023-07-13T12:45:39;24.40;99.90
37528;DHT22;23372;52.050;4.810;2023-07-13T12:48:20;24.10;99.90
37528;DHT22;23372;52.050;4.810;2023-07-13T12:50:48;24.10;99.90
37528;DHT22;23372;52.050;4.810;2023-07-13T12:53:20;24.20;99.90
37528;DHT22;23372;52.050;4.810;2023-07-13T12:58:39;24.80;99.90
37528;DHT22;23372;52.050;4.810;2023-07-13T13:01:04;24.70;99.90
37528;DHT22;23372;52.050;4.810;2023-07-13T13:03:32;24.50;99.90
37528;DHT22;23372;52.050;4.810;2023-07-13T13:06:04;24.30;99.90
37528;DHT22;23372;52.050;4.810;2023-07-13T13:08:35;24.00;99.90
37528;DHT22;23372;52.050;4.810;2023-07-13T13:11:02;23.50;99.90
37528;DHT22;23372;52.050;4.810;2023-07-13T13:13:28;23.40;99.90
37528;DHT22;23372;52.050;4.810;2023-07-13T13:15:54;23.70;99.90
37528;DHT22;23372;52.050;4.810;2023-07-13T13:18:22;23.90;99.90
37528;DHT22;23372;52.050;4.810;2023-07-13T13:20:51;23.70;99.90
37528;DHT22;23372;52.050;4.810;2023-07-13T13:23:19;24.00;99.90
37528;DHT22;23372;52.050;4.810;2023-07-13T13:25:47;24.40;99.90
37528;DHT22;23372;52.050;4.810;2023-07-13T13:28:16;24.30;99.90
37528;DHT22;23372;52.050;4.810;2023-07-13T13:30:43;24.10;99.90
37528;DHT22;23372;52.050;4.810;2023-07-13T13:33:15;24.30;99.90
37528;DHT22;23372;52.050;4.810;2023-07-13T13:35:43;24.20;99.90
37528;DHT22;23372;52.050;4.810;2023-07-13T13:38:15;24.50;99.90
37528;DHT22;23372;52.050;4.810;2023-07-13T13:40:43;24.80;99.90
37528;DHT22;23372;52.050;4.810;2023-07-13T13:43:17;25.10;99.90
37528;DHT22;23372;52.050;4.810;2023-07-13T13:45:44;25.40;99.90
37528;DHT22;23372;52.050;4.810;2023-07-13T13:48:25;25.40;99.90
37528;DHT22;23372;52.050;4.810;2023-07-13T13:50:56;25.30;99.90
37528;DHT22;23372;52.050;4.810;2023-07-13T13:53:22;25.10;99.90
37528;DHT22;23372;52.050;4.810;2023-07-13T13:55:49;25.10;99.90
37528;DHT22;23372;52.050;4.810;2023-07-13T13:58:15;24.70;99.90
37528;DHT22;23372;52.050;4.810;2023-07-13T14:00:41;24.70;99.90
37528;DHT22;23372;52.050;4.810;2023-07-13T14:03:29;24.60;99.90
37528;DHT22;23372;52.050;4.810;2023-07-13T14:05:56;24.30;99.90
37528;DHT22;23372;52.050;4.810;2023-07-13T14:08:22;23.90;99.90
37528;DHT22;23372;52.050;4.810;2023-07-13T14:10:51;24.00;99.90
37528;DHT22;23372;52.050;4.810;2023-07-13T14:13:31;23.80;99.90
37528;DHT22;23372;52.050;4.810;2023-07-13T14:16:00;23.30;99.90
37528;DHT22;23372;52.050;4.810;2023-07-13T14:18:26;23.00;99.90
37528;DHT22;23372;52.050;4.810;2023-07-13T14:20:52;22.90;99.90
37528;DHT22;23372;52.050;4.810;2023-07-13T14:23:18;22.60;99.90
37528;DHT22;23372;52.050;4.810;2023-07-13T14:25:45;22.70;99.90
37528;DHT22;23372;52.050;4.810;2023-07-13T14:28:20;22.60;99.90
37528;DHT22;23372;52.050;4.810;2023-07-13T14:30:49;22.50;99.90
37528;DHT22;23372;52.050;4.810;2023-07-13T14:33:15;22.50;99.90
37528;DHT22;23372;52.050;4.810;2023-07-13T14:35:41;22.40;99.90
37528;DHT22;23372;52.050;4.810;2023-07-13T14:38:13;22.30;99.90
37528;DHT22;23372;52.050;4.810;2023-07-13T14:40:39;22.40;99.90
37528;DHT22;23372;52.050;4.810;2023-07-13T14:43:12;22.60;99.90
37528;DHT22;23372;52.050;4.810;2023-07-13T14:45:41;23.00;99.90
37528;DHT22;23372;52.050;4.810;2023-07-13T14:48:24;22.80;99.90
37528;DHT22;23372;52.050;4.810;2023-07-13T14:50:58;22.90;99.90
37528;DHT22;23372;52.050;4.810;2023-07-13T14:53:26;23.40;99.90
37528;DHT22;23372;52.050;4.810;2023-07-13T14:55:53;23.60;99.90
37528;DHT22;23372;52.050;4.810;2023-07-13T14:58:19;23.70;99.90
37528;DHT22;23372;52.050;4.810;2023-07-13T15:00:45;23.60;99.90
37528;DHT22;23372;52.050;4.810;2023-07-13T15:03:30;23.60;99.90
37528;DHT22;23372;52.050;4.810;2023-07-13T15:05:55;23.90;99.90
37528;DHT22;23372;52.050;4.810;2023-07-13T15:08:21;24.30;99.90
37528;DHT22;23372;52.050;4.810;2023-07-13T15:10:47;24.50;99.90
37528;DHT22;23372;52.050;4.810;2023-07-13T15:13:18;24.30;99.90
37528;DHT22;23372;52.050;4.810;2023-07-13T15:15:51;23.90;99.90
37528;DHT22;23372;52.050;4.810;2023-07-13T15:18:21;23.80;99.90
37528;DHT22;23372;52.050;4.810;2023-07-13T15:20:48;23.80;99.90
37528;DHT22;23372;52.050;4.810;2023-07-13T15:23:16;24.00;99.90
37528;DHT22;23372;52.050;4.810;2023-07-13T15:25:43;24.10;99.90
37528;DHT22;23372;52.050;4.810;2023-07-13T15:28:10;24.00;99.90
37528;DHT22;23372;52.050;4.810;2023-07-13T15:35:40;23.10;99.90
37528;DHT22;23372;52.050;4.810;2023-07-13T15:38:19;23.00;99.90
37528;DHT22;23372;52.050;4.810;2023-07-13T15:40:47;23.20;99.90
37528;DHT22;23372;52.050;4.810;2023-07-13T15:43:14;23.20;99.90
37528;DHT22;23372;52.050;4.810;2023-07-13T15:45:40;23.00;99.90
37528;DHT22;23372;52.050;4.810;2023-07-13T15:48:23;22.70;99.90
37528;DHT22;23372;52.050;4.810;2023-07-13T15:50:54;22.70;99.90
37528;DHT22;23372;52.050;4.810;2023-07-13T15:53:33;22.40;99.90
37528;DHT22;23372;52.050;4.810;2023-07-13T15:56:02;22.30;99.90
37528;DHT22;23372;52.050;4.810;2023-07-13T15:58:31;22.50;99.90
37528;DHT22;23372;52.050;4.810;2023-07-13T16:00:58;22.80;99.90
37528;DHT22;23372;52.050;4.810;2023-07-13T16:03:24;23.00;99.90
37528;DHT22;23372;52.050;4.810;2023-07-13T16:05:51;23.20;99.90
37528;DHT22;23372;52.050;4.810;2023-07-13T16:08:27;23.30;99.90
37528;DHT22;23372;52.050;4.810;2023-07-13T16:10:56;23.20;99.90
37528;DHT22;23372;52.050;4.810;2023-07-13T16:13:22;23.00;99.90
37528;DHT22;23372;52.050;4.810;2023-07-13T16:15:50;22.90;99.90